PWSweather.com
Personal Weather Stations
Station Observations
WARREN
Narre Warren , MelbourneAU

Narre Warren MelbourneAU

Lat: -38.0314269, Lon: 145.3160851

Elevation: 24

Station Type: Digiteck

http://www.aussiedownunder.net/

High Low Average
Temperature 75.9°F24.4°F 47.8°F8.8°F 57.2°F14.0°F
Dew Point 55.8°F13.2°F 44.3°F6.8°F 49.5°F9.7°F
Winds 8.3 mph -13.4 mph - Calm Calm 1.5 mph 2.4 mph
Wind Gusts 23.5 mph37.8 mph 0.7 mph1.1 mph 5.3 mph8.5 mph
Humidity 96% 36% 78%
Pressure 29.61 in1002.70 in 29.17 in987.80 in -
Precipitation 1.71 in43.40 in - -
Hour Temp Dew Point Humidity Winds Wind Gusts Pressure Precip Precip Rate Daily Precip Total
12:00 AM 75.9°F24.4°C 47.1°F8.4°C 36% 4.5 mph SSW7.2 kmh SSW 12.1 mph19.5 kmh 29.19 in988.5 mb 0.00 in0.0 mm 0.00 in0.0 mm 0.00 in0.0 mm
12:15 AM 74.3°F23.5°C 47.8°F8.8°C 39% 5.0 mph S8.0 kmh S 10.7 mph17.2 kmh 29.20 in988.8 mb 0.00 in0.0 mm 0.00 in0.0 mm 0.00 in0.0 mm
12:30 AM 73.8°F23.2°C 48.0°F8.9°C 40% 3.5 mph SSW5.6 kmh SSW 11.4 mph18.3 kmh 29.20 in988.8 mb 0.00 in0.0 mm 0.00 in0.0 mm 0.00 in0.0 mm
12:45 AM 71.6°F22.0°C 47.3°F8.5°C 42% 0.8 mph SSE1.3 kmh SSE 3.8 mph6.1 kmh 29.20 in988.8 mb 0.00 in0.0 mm 0.00 in0.0 mm 0.00 in0.0 mm
01:00 AM 70.9°F21.6°C 47.3°F8.5°C 43% 0.5 mph NW0.8 kmh NW 3.8 mph6.1 kmh 29.19 in988.5 mb 0.00 in0.0 mm 0.00 in0.0 mm 0.00 in0.0 mm
01:15 AM 70.0°F21.1°C 46.5°F8.1°C 43% 0.1 mph N0.2 kmh N 2.2 mph3.5 kmh 29.18 in988.1 mb 0.00 in0.0 mm 0.00 in0.0 mm 0.00 in0.0 mm
01:30 AM 69.3°F20.7°C 47.0°F8.3°C 45% Calm Calm 2.2 mph3.5 kmh 29.17 in987.8 mb 0.00 in0.0 mm 0.00 in0.0 mm 0.00 in0.0 mm
01:45 AM 69.4°F20.8°C 47.2°F8.4°C 45% 0.2 mph NNW0.3 kmh NNW 3.8 mph6.1 kmh 29.18 in988.1 mb 0.00 in0.0 mm 0.00 in0.0 mm 0.00 in0.0 mm
02:00 AM 72.1°F22.3°C 49.0°F9.4°C 44% 8.3 mph SSW13.4 kmh SSW 23.5 mph37.8 kmh 29.21 in989.2 mb 0.00 in0.0 mm 0.00 in0.0 mm 0.00 in0.0 mm
02:15 AM 68.2°F20.1°C 54.2°F12.3°C 61% 6.9 mph SSW11.1 kmh SSW 18.3 mph29.5 kmh 29.23 in989.8 mb 0.00 in0.0 mm 0.00 in0.0 mm 0.00 in0.0 mm
02:30 AM 64.8°F18.2°C 54.8°F12.7°C 70% 4.4 mph S7.1 kmh S 9.8 mph15.8 kmh 29.26 in990.9 mb 0.00 in0.0 mm 0.00 in0.0 mm 0.00 in0.0 mm
02:45 AM 62.1°F16.7°C 55.8°F13.2°C 80% 6.7 mph SSW10.8 kmh SSW 14.5 mph23.3 kmh 29.29 in991.9 mb 0.00 in0.0 mm 0.00 in0.0 mm 0.00 in0.0 mm
03:00 AM 60.6°F15.9°C 55.1°F12.8°C 82% 5.7 mph S9.2 kmh S 14.5 mph23.3 kmh 29.32 in992.9 mb 0.00 in0.0 mm 0.00 in0.0 mm 0.00 in0.0 mm
03:15 AM 58.8°F14.9°C 54.7°F12.6°C 86% 6.0 mph SSE9.7 kmh SSE 14.5 mph23.3 kmh 29.31 in992.6 mb 0.00 in0.0 mm 0.00 in0.0 mm 0.00 in0.0 mm
03:30 AM 57.9°F14.4°C 54.7°F12.6°C 89% 3.9 mph S6.3 kmh S 10.7 mph17.2 kmh 29.35 in993.9 mb 0.02 in0.5 mm 0.08 in2.0 mm 0.02 in0.5 mm
03:45 AM 57.0°F13.9°C 54.4°F12.4°C 91% 2.6 mph SSE4.2 kmh SSE 6.9 mph11.1 kmh 29.34 in993.6 mb 0.06 in1.5 mm 0.16 in4.1 mm 0.06 in1.5 mm
04:00 AM 56.5°F13.6°C 54.2°F12.3°C 92% 1.5 mph SE2.4 kmh SE 4.5 mph7.2 kmh 29.34 in993.6 mb 0.09 in2.3 mm 0.04 in1.0 mm 0.09 in2.3 mm
04:15 AM 56.1°F13.4°C 54.1°F12.3°C 93% 1.0 mph E1.6 kmh E 6.0 mph9.7 kmh 29.35 in993.9 mb 0.11 in2.8 mm 0.08 in2.0 mm 0.11 in2.8 mm
04:30 AM 55.9°F13.3°C 54.2°F12.3°C 94% 0.4 mph E0.6 kmh E 2.2 mph3.5 kmh 29.35 in993.9 mb 0.08 in2.0 mm 0.00 in0.0 mm 0.11 in2.8 mm
04:45 AM 55.6°F13.1°C 54.2°F12.3°C 95% 1.5 mph SE2.4 kmh SE 5.4 mph8.7 kmh 29.36 in994.2 mb 0.07 in1.8 mm 0.00 in0.0 mm 0.13 in3.3 mm
05:00 AM 55.0°F12.8°C 53.4°F11.9°C 94% 1.7 mph ESE2.7 kmh ESE 6.9 mph11.1 kmh 29.36 in994.2 mb 0.04 in1.0 mm 0.00 in0.0 mm 0.13 in3.3 mm
05:15 AM 54.9°F12.7°C 53.5°F11.9°C 95% 0.7 mph E1.1 kmh E 3.8 mph6.1 kmh 29.36 in994.2 mb 0.04 in1.0 mm 0.00 in0.0 mm 0.14 in3.6 mm
05:30 AM 54.3°F12.4°C 52.6°F11.4°C 94% 1.1 mph S1.8 kmh S 4.5 mph7.2 kmh 29.38 in994.9 mb 0.04 in1.0 mm 0.00 in0.0 mm 0.14 in3.6 mm
05:45 AM 54.1°F12.3°C 52.5°F11.4°C 94% Calm Calm 1.6 mph2.6 kmh 29.40 in995.6 mb 0.02 in0.5 mm 0.00 in0.0 mm 0.15 in3.8 mm
06:00 AM 54.3°F12.4°C 52.9°F11.6°C 95% 0.2 mph SE0.3 kmh SE 2.2 mph3.5 kmh 29.41 in995.9 mb 0.02 in0.5 mm 0.00 in0.0 mm 0.15 in3.8 mm
06:15 AM 54.3°F12.4°C 52.9°F11.6°C 95% Calm Calm 0.7 mph1.1 kmh 29.41 in995.9 mb 0.02 in0.5 mm 0.00 in0.0 mm 0.17 in4.3 mm
06:30 AM 54.3°F12.4°C 52.9°F11.6°C 95% 0.4 mph E0.6 kmh E 3.8 mph6.1 kmh 29.41 in995.9 mb 0.01 in0.3 mm 0.00 in0.0 mm 0.17 in4.3 mm
06:45 AM 54.0°F12.2°C 52.3°F11.3°C 94% 0.4 mph SSE0.6 kmh SSE 4.5 mph7.2 kmh 29.44 in997.0 mb 0.01 in0.3 mm 0.00 in0.0 mm 0.17 in4.3 mm
07:00 AM 54.0°F12.2°C 52.3°F11.3°C 94% 0.6 mph ESE1.0 kmh ESE 3.1 mph5.0 kmh 29.44 in997.0 mb 0.01 in0.3 mm 0.00 in0.0 mm 0.17 in4.3 mm
07:15 AM 54.0°F12.2°C 52.3°F11.3°C 94% 0.2 mph E0.3 kmh E 2.2 mph3.5 kmh 29.44 in997.0 mb 0.01 in0.3 mm 0.00 in0.0 mm 0.18 in4.6 mm
07:30 AM 53.8°F12.1°C 52.1°F11.2°C 94% 1.6 mph SE2.6 kmh SE 5.4 mph8.7 kmh 29.44 in997.0 mb 0.01 in0.3 mm 0.00 in0.0 mm 0.18 in4.6 mm
07:45 AM 53.8°F12.1°C 51.8°F11.0°C 93% 0.3 mph SE0.5 kmh SE 3.1 mph5.0 kmh 29.44 in997.0 mb 0.01 in0.3 mm 0.00 in0.0 mm 0.18 in4.6 mm
08:00 AM 53.4°F11.9°C 51.7°F10.9°C 94% 0.5 mph ESE0.8 kmh ESE 3.8 mph6.1 kmh 29.44 in997.0 mb 0.02 in0.5 mm 0.01 in0.3 mm 0.19 in4.8 mm
08:15 AM 53.4°F11.9°C 51.7°F10.9°C 94% 0.1 mph NE0.2 kmh NE 1.6 mph2.6 kmh 29.44 in997.0 mb 0.02 in0.5 mm 0.00 in0.0 mm 0.20 in5.1 mm
08:30 AM 53.1°F11.7°C 51.4°F10.8°C 94% 0.9 mph S1.4 kmh S 3.1 mph5.0 kmh 29.45 in997.3 mb 0.04 in1.0 mm 0.08 in2.0 mm 0.21 in5.3 mm
08:45 AM 53.1°F11.7°C 51.4°F10.8°C 94% 1.0 mph SSE1.6 kmh SSE 4.5 mph7.2 kmh 29.45 in997.3 mb 0.07 in1.8 mm 0.12 in3.0 mm 0.25 in6.4 mm
09:00 AM 53.1°F11.7°C 51.4°F10.8°C 94% 0.2 mph WNW0.3 kmh WNW 1.6 mph2.6 kmh 29.46 in997.6 mb 0.08 in2.0 mm 0.01 in0.3 mm 0.27 in6.9 mm
09:15 AM 52.9°F11.6°C 51.2°F10.7°C 94% 0.5 mph SE0.8 kmh SE 3.1 mph5.0 kmh 29.45 in997.3 mb 0.11 in2.8 mm 0.12 in3.0 mm 0.31 in7.9 mm
09:30 AM 52.7°F11.5°C 51.0°F10.6°C 94% Calm Calm 1.6 mph2.6 kmh 29.43 in996.6 mb 0.13 in3.3 mm 0.08 in2.0 mm 0.34 in8.6 mm
09:45 AM 52.9°F11.6°C 51.5°F10.8°C 95% 0.2 mph NE0.3 kmh NE 3.8 mph6.1 kmh 29.44 in997.0 mb 0.13 in3.3 mm 0.00 in0.0 mm 0.38 in9.7 mm
10:00 AM 52.3°F11.3°C 51.0°F10.6°C 95% 1.0 mph E1.6 kmh E 4.5 mph7.2 kmh 29.43 in996.6 mb 0.12 in3.0 mm 0.00 in0.0 mm 0.39 in9.9 mm
10:15 AM 52.0°F11.1°C 50.6°F10.3°C 95% 0.7 mph SSE1.1 kmh SSE 3.1 mph5.0 kmh 29.44 in997.0 mb 0.09 in2.3 mm 0.00 in0.0 mm 0.40 in10.2 mm
10:30 AM 52.2°F11.2°C 50.8°F10.4°C 95% 0.4 mph ESE0.6 kmh ESE 3.1 mph5.0 kmh 29.44 in997.0 mb 0.07 in1.8 mm 0.00 in0.0 mm 0.41 in10.4 mm
10:45 AM 52.0°F11.1°C 50.6°F10.3°C 95% Calm Calm 0.7 mph1.1 kmh 29.45 in997.3 mb 0.05 in1.3 mm 0.00 in0.0 mm 0.43 in10.9 mm
11:00 AM 52.5°F11.4°C 51.4°F10.8°C 96% Calm Calm 0.7 mph1.1 kmh 29.45 in997.3 mb 0.04 in1.0 mm 0.00 in0.0 mm 0.43 in10.9 mm
11:15 AM 52.5°F11.4°C 51.4°F10.8°C 96% Calm Calm 0.7 mph1.1 kmh 29.45 in997.3 mb 0.02 in0.5 mm 0.00 in0.0 mm 0.43 in10.9 mm
11:30 AM 52.7°F11.5°C 51.6°F10.9°C 96% 0.1 mph S0.2 kmh S 1.6 mph2.6 kmh 29.45 in997.3 mb 0.01 in0.3 mm 0.00 in0.0 mm 0.43 in10.9 mm
11:45 AM 53.6°F12.0°C 52.2°F11.2°C 95% 0.1 mph SE0.2 kmh SE 1.6 mph2.6 kmh 29.44 in997.0 mb 0.00 in0.0 mm 0.00 in0.0 mm 0.43 in10.9 mm
12:00 PM 53.8°F12.1°C 52.4°F11.3°C 95% 0.5 mph S0.8 kmh S 2.2 mph3.5 kmh 29.44 in997.0 mb 0.00 in0.0 mm 0.00 in0.0 mm 0.43 in10.9 mm
12:15 PM 54.3°F12.4°C 52.6°F11.4°C 94% 0.6 mph S1.0 kmh S 3.1 mph5.0 kmh 29.43 in996.6 mb 0.00 in0.0 mm 0.00 in0.0 mm 0.43 in10.9 mm
12:30 PM 56.8°F13.8°C 54.8°F12.7°C 93% 1.1 mph SW1.8 kmh SW 3.1 mph5.0 kmh 29.44 in997.0 mb 0.00 in0.0 mm 0.00 in0.0 mm 0.43 in10.9 mm
12:45 PM 58.1°F14.5°C 54.6°F12.6°C 88% 1.0 mph S1.6 kmh S 3.1 mph5.0 kmh 29.44 in997.0 mb 0.00 in0.0 mm 0.00 in0.0 mm 0.43 in10.9 mm
01:00 PM 59.2°F15.1°C 53.7°F12.1°C 82% 1.4 mph SSE2.3 kmh SSE 4.5 mph7.2 kmh 29.43 in996.6 mb 0.00 in0.0 mm 0.00 in0.0 mm 0.43 in10.9 mm
01:15 PM 60.8°F16.0°C 52.5°F11.4°C 74% 1.8 mph S2.9 kmh S 6.9 mph11.1 kmh 29.43 in996.6 mb 0.00 in0.0 mm 0.00 in0.0 mm 0.43 in10.9 mm
01:30 PM 61.9°F16.6°C 52.0°F11.1°C 70% 2.0 mph SSW3.2 kmh SSW 6.9 mph11.1 kmh 29.43 in996.6 mb 0.00 in0.0 mm 0.00 in0.0 mm 0.43 in10.9 mm
01:45 PM 63.7°F17.6°C 52.5°F11.4°C 67% 0.8 mph SE1.3 kmh SE 3.8 mph6.1 kmh 29.43 in996.6 mb 0.00 in0.0 mm 0.00 in0.0 mm 0.43 in10.9 mm
02:00 PM 63.5°F17.5°C 50.3°F10.2°C 62% 3.8 mph SE6.1 kmh SE 9.8 mph15.8 kmh 29.43 in996.6 mb 0.00 in0.0 mm 0.00 in0.0 mm 0.43 in10.9 mm
02:15 PM 64.0°F17.8°C 51.2°F10.7°C 63% 4.8 mph SSE7.7 kmh SSE 11.4 mph18.3 kmh 29.43 in996.6 mb 0.00 in0.0 mm 0.00 in0.0 mm 0.43 in10.9 mm
02:30 PM 61.9°F16.6°C 49.6°F9.8°C 64% 3.8 mph SSE6.1 kmh SSE 9.8 mph15.8 kmh 29.43 in996.6 mb 0.00 in0.0 mm 0.00 in0.0 mm 0.43 in10.9 mm
02:45 PM 60.6°F15.9°C 48.8°F9.3°C 65% 3.6 mph SSW5.8 kmh SSW 9.2 mph14.8 kmh 29.43 in996.6 mb 0.00 in0.0 mm 0.00 in0.0 mm 0.43 in10.9 mm
03:00 PM 60.1°F15.6°C 45.3°F7.4°C 58% 3.9 mph SE6.3 kmh SE 9.8 mph15.8 kmh 29.44 in997.0 mb 0.01 in0.3 mm 0.01 in0.3 mm 0.44 in11.2 mm
03:15 PM 60.4°F15.8°C 46.5°F8.1°C 60% 3.7 mph SE6.0 kmh SE 9.8 mph15.8 kmh 29.44 in997.0 mb 0.01 in0.3 mm 0.00 in0.0 mm 0.44 in11.2 mm
03:30 PM 60.4°F15.8°C 47.8°F8.8°C 63% 1.6 mph SE2.6 kmh SE 6.0 mph9.7 kmh 29.45 in997.3 mb 0.01 in0.3 mm 0.00 in0.0 mm 0.44 in11.2 mm
03:45 PM 59.7°F15.4°C 46.3°F7.9°C 61% 2.5 mph SSE4.0 kmh SSE 6.9 mph11.1 kmh 29.45 in997.3 mb 0.01 in0.3 mm 0.00 in0.0 mm 0.44 in11.2 mm
04:00 PM 59.5°F15.3°C 47.4°F8.6°C 64% 4.7 mph SE7.6 kmh SE 11.4 mph18.3 kmh 29.46 in997.6 mb 0.00 in0.0 mm 0.00 in0.0 mm 0.44 in11.2 mm
04:30 PM 59.2°F15.1°C 47.4°F8.6°C 65% 3.3 mph SE5.3 kmh SE 9.2 mph14.8 kmh 29.48 in998.3 mb 0.00 in0.0 mm 0.00 in0.0 mm 0.44 in11.2 mm
04:45 PM 59.7°F15.4°C 45.8°F7.7°C 60% 2.4 mph SSE3.9 kmh SSE 9.2 mph14.8 kmh 29.48 in998.3 mb 0.00 in0.0 mm 0.00 in0.0 mm 0.44 in11.2 mm
05:00 PM 59.7°F15.4°C 46.7°F8.2°C 62% 3.7 mph SE6.0 kmh SE 8.3 mph13.4 kmh 29.49 in998.6 mb 0.00 in0.0 mm 0.00 in0.0 mm 0.44 in11.2 mm
05:15 PM 59.2°F15.1°C 46.2°F7.9°C 62% 2.7 mph SE4.3 kmh SE 7.6 mph12.2 kmh 29.49 in998.6 mb 0.00 in0.0 mm 0.00 in0.0 mm 0.44 in11.2 mm
05:30 PM 60.6°F15.9°C 47.5°F8.6°C 62% 1.4 mph ESE2.3 kmh ESE 4.5 mph7.2 kmh 29.50 in999.0 mb 0.00 in0.0 mm 0.00 in0.0 mm 0.44 in11.2 mm
05:45 PM 59.5°F15.3°C 46.9°F8.3°C 63% 0.8 mph ESE1.3 kmh ESE 6.0 mph9.7 kmh 29.50 in999.0 mb 0.00 in0.0 mm 0.00 in0.0 mm 0.44 in11.2 mm
06:00 PM 58.5°F14.7°C 45.1°F7.3°C 61% 2.8 mph SSE4.5 kmh SSE 7.6 mph12.2 kmh 29.52 in999.7 mb 0.00 in0.0 mm 0.00 in0.0 mm 0.44 in11.2 mm
06:15 PM 57.9°F14.4°C 45.4°F7.4°C 63% 1.7 mph ESE2.7 kmh ESE 7.6 mph12.2 kmh 29.53 in1000.0 mb 0.00 in0.0 mm 0.00 in0.0 mm 0.44 in11.2 mm
06:30 PM 57.4°F14.1°C 45.3°F7.4°C 64% 1.1 mph E1.8 kmh E 7.6 mph12.2 kmh 29.54 in1000.3 mb 0.00 in0.0 mm 0.00 in0.0 mm 0.44 in11.2 mm
06:45 PM 55.8°F13.2°C 45.0°F7.2°C 67% 0.1 mph NE0.2 kmh NE 2.2 mph3.5 kmh 29.55 in1000.7 mb 0.00 in0.0 mm 0.00 in0.0 mm 0.44 in11.2 mm
07:00 PM 55.2°F12.9°C 46.0°F7.8°C 71% 0.5 mph ESE0.8 kmh ESE 4.5 mph7.2 kmh 29.57 in1001.4 mb 0.00 in0.0 mm 0.00 in0.0 mm 0.44 in11.2 mm
07:15 PM 55.2°F12.9°C 46.4°F8.0°C 72% 2.8 mph SSE4.5 kmh SSE 6.9 mph11.1 kmh 29.58 in1001.7 mb 0.00 in0.0 mm 0.00 in0.0 mm 0.44 in11.2 mm
07:30 PM 54.7°F12.6°C 45.5°F7.5°C 71% 1.8 mph ESE2.9 kmh ESE 8.3 mph13.4 kmh 29.58 in1001.7 mb 0.00 in0.0 mm 0.00 in0.0 mm 0.44 in11.2 mm
07:45 PM 53.6°F12.0°C 44.8°F7.1°C 72% 0.3 mph SE0.5 kmh SE 2.2 mph3.5 kmh 29.59 in1002.0 mb 0.00 in0.0 mm 0.00 in0.0 mm 0.44 in11.2 mm
08:00 PM 52.9°F11.6°C 44.8°F7.1°C 74% 0.1 mph S0.2 kmh S 1.6 mph2.6 kmh 29.60 in1002.4 mb 0.00 in0.0 mm 0.00 in0.0 mm 0.44 in11.2 mm
08:15 PM 52.7°F11.5°C 44.7°F7.1°C 74% Calm Calm 0.7 mph1.1 kmh 29.60 in1002.4 mb 0.00 in0.0 mm 0.00 in0.0 mm 0.44 in11.2 mm
08:30 PM 52.9°F11.6°C 45.5°F7.5°C 76% 0.2 mph S0.3 kmh S 2.2 mph3.5 kmh 29.60 in1002.4 mb 0.00 in0.0 mm 0.00 in0.0 mm 0.44 in11.2 mm
08:45 PM 52.5°F11.4°C 45.2°F7.3°C 76% 0.2 mph S0.3 kmh S 3.8 mph6.1 kmh 29.61 in1002.7 mb 0.00 in0.0 mm 0.00 in0.0 mm 0.44 in11.2 mm
09:00 PM 51.8°F11.0°C 44.8°F7.1°C 77% Calm Calm 0.7 mph1.1 kmh 29.61 in1002.7 mb 0.00 in0.0 mm 0.00 in0.0 mm 0.44 in11.2 mm
09:15 PM 52.0°F11.1°C 45.7°F7.6°C 79% 0.8 mph SE1.3 kmh SE 3.8 mph6.1 kmh 29.61 in1002.7 mb 0.00 in0.0 mm 0.00 in0.0 mm 0.44 in11.2 mm
09:30 PM 51.8°F11.0°C 45.8°F7.7°C 80% 0.4 mph SE0.6 kmh SE 4.5 mph7.2 kmh 29.60 in1002.4 mb 0.00 in0.0 mm 0.00 in0.0 mm 0.44 in11.2 mm
09:45 PM 51.3°F10.7°C 46.0°F7.8°C 82% 0.1 mph SSE0.2 kmh SSE 2.2 mph3.5 kmh 29.61 in1002.7 mb 0.00 in0.0 mm 0.00 in0.0 mm 0.44 in11.2 mm
10:00 PM 50.2°F10.1°C 44.9°F7.2°C 82% Calm Calm 0.7 mph1.1 kmh 29.61 in1002.7 mb 0.00 in0.0 mm 0.00 in0.0 mm 0.44 in11.2 mm
10:15 PM 49.5°F9.7°C 44.8°F7.1°C 84% Calm Calm 0.7 mph1.1 kmh 29.60 in1002.4 mb 0.00 in0.0 mm 0.00 in0.0 mm 0.44 in11.2 mm
10:30 PM 48.9°F9.4°C 44.3°F6.8°C 84% Calm Calm 0.7 mph1.1 kmh 29.60 in1002.4 mb 0.00 in0.0 mm 0.00 in0.0 mm 0.44 in11.2 mm
10:45 PM 48.7°F9.3°C 44.4°F6.9°C 85% Calm Calm 1.6 mph2.6 kmh 29.60 in1002.4 mb 0.00 in0.0 mm 0.00 in0.0 mm 0.44 in11.2 mm
11:00 PM 48.9°F9.4°C 44.9°F7.2°C 86% Calm Calm 0.7 mph1.1 kmh 29.60 in1002.4 mb 0.00 in0.0 mm 0.00 in0.0 mm 0.24 in6.1 mm
11:15 PM 48.6°F9.2°C 44.6°F7.0°C 86% Calm Calm 0.7 mph1.1 kmh 29.60 in1002.4 mb 0.00 in0.0 mm 0.00 in0.0 mm 0.24 in6.1 mm
11:30 PM 48.2°F9.0°C 44.5°F6.9°C 87% 0.1 mph SW0.2 kmh SW 2.2 mph3.5 kmh 29.59 in1002.0 mb 0.00 in0.0 mm 0.00 in0.0 mm 0.24 in6.1 mm
11:45 PM 47.8°F8.8°C 44.5°F6.9°C 88% Calm Calm 1.6 mph2.6 kmh 29.59 in1002.0 mb 0.00 in0.0 mm 0.00 in0.0 mm 0.24 in6.1 mm